Time;durP1;ratioP1;P1;durP2;ratioP2;P2;SDS_P1;SDS_P2;PMS_P1;PMS_P2;Temp;Humidity;BMP_temperature;BMP_pressure;BME280_temperature;BME280_humidity;BME280_pressure;Samples;Min_cycle;Max_cycle;Signal;HPM_P1;HPM_P2
2022/01/18 00:00:50;;;;;;;36.28;5.60;;;7.30;99.90;;;;;;5099348;27;20031;-75
2022/01/18 00:03:16;;;;;;;34.45;6.45;;;7.30;99.90;;;;;;5100654;27;20083;-74
2022/01/18 00:05:44;;;;;;;24.38;4.63;;;7.30;99.90;;;;;;5125161;27;20036;-74
2022/01/18 00:08:10;;;;;;;39.22;5.35;;;7.40;99.90;;;;;;5098517;27;20099;-74
2022/01/18 00:10:36;;;;;;;39.65;5.57;;;7.40;99.90;;;;;;5099252;27;20039;-74
2022/01/18 00:18:11;;;;;;;38.30;5.72;;;7.40;99.90;;;;;;5116141;27;20047;-75
2022/01/18 00:23:16;;;;;;;33.30;5.80;;;7.40;99.90;;;;;;5114392;27;20517;-75
2022/01/18 00:25:45;;;;;;;31.77;5.55;;;7.40;99.90;;;;;;5099537;27;20399;-74
2022/01/18 00:28:11;;;;;;;29.00;5.30;;;7.30;99.90;;;;;;5113431;27;20061;-74
2022/01/18 00:31:18;;;;;;;37.78;5.57;;;7.30;99.90;;;;;;5134181;27;20058;-74
2022/01/18 00:33:48;;;;;;;37.30;4.97;;;7.30;99.90;;;;;;5126308;27;20043;-74
2022/01/18 00:36:35;;;;;;;35.00;5.05;;;7.20;99.90;;;;;;5116676;27;20117;-74
2022/01/18 00:39:03;;;;;;;32.33;6.05;;;7.10;99.90;;;;;;5113775;27;20111;-74
2022/01/18 00:41:28;;;;;;;35.00;5.05;;;7.10;99.90;;;;;;5115136;27;20070;-74
2022/01/18 00:43:55;;;;;;;30.02;4.85;;;7.10;99.90;;;;;;5115291;27;20498;-74
2022/01/18 00:46:23;;;;;;;33.42;5.95;;;7.10;99.90;;;;;;5114345;27;20043;-75
2022/01/18 00:48:51;;;;;;;31.50;4.53;;;7.20;99.90;;;;;;5099513;27;20114;-75
2022/01/18 00:51:17;;;;;;;24.33;4.28;;;7.20;99.90;;;;;;5099067;27;20127;-74
2022/01/18 00:53:45;;;;;;;33.13;5.20;;;7.10;99.90;;;;;;5114957;27;20076;-74
2022/01/18 00:58:39;;;;;;;30.20;5.25;;;7.10;99.90;;;;;;5113801;27;20050;-75
2022/01/18 01:01:05;;;;;;;32.78;5.15;;;7.00;99.90;;;;;;5133362;27;20154;-74
2022/01/18 01:03:31;;;;;;;35.38;5.78;;;7.00;99.90;;;;;;5099212;27;20035;-74
2022/01/18 01:05:57;;;;;;;38.50;5.45;;;7.00;99.90;;;;;;5133283;27;20031;-74
2022/01/18 01:08:22;;;;;;;27.15;4.00;;;7.00;99.90;;;;;;5119711;27;20463;-74
2022/01/18 01:10:48;;;;;;;25.02;4.72;;;6.90;99.90;;;;;;5099420;27;20395;-74
2022/01/18 01:13:16;;;;;;;35.70;5.18;;;7.00;99.90;;;;;;5113360;27;20031;-74
2022/01/18 01:16:02;;;;;;;30.08;5.53;;;7.00;99.90;;;;;;5131278;27;20081;-74
2022/01/18 01:18:42;;;;;;;26.63;4.78;;;7.00;99.90;;;;;;5115461;27;20047;-75
2022/01/18 01:45:35;;;;;;;23.50;4.30;;;7.00;99.90;;;;;;5115580;28;20422;-74
2022/01/18 01:48:03;;;;;;;31.25;5.47;;;7.10;99.90;;;;;;5114763;28;20046;-74
2022/01/18 01:50:43;;;;;;;35.58;5.30;;;7.00;99.90;;;;;;5098653;28;20488;-74
2022/01/18 01:53:09;;;;;;;24.10;5.50;;;7.10;99.90;;;;;;5113865;28;20103;-74
2022/01/18 01:55:35;;;;;;;28.55;5.07;;;7.00;99.90;;;;;;5098510;27;20046;-74
2022/01/18 01:58:00;;;;;;;33.95;5.55;;;7.10;99.90;;;;;;5116325;27;20484;-74
2022/01/18 02:00:26;;;;;;;36.75;6.32;;;7.10;99.90;;;;;;5119703;27;20039;-74
2022/01/18 02:02:52;;;;;;;26.70;4.55;;;7.00;99.90;;;;;;5108710;27;20038;-74
2022/01/18 02:05:20;;;;;;;32.65;5.70;;;7.10;99.90;;;;;;5118402;27;20492;-74
2022/01/18 02:07:45;;;;;;;33.42;5.05;;;7.00;99.90;;;;;;5103529;27;20039;-74
2022/01/18 02:10:11;;;;;;;31.67;5.35;;;7.00;99.90;;;;;;5119723;27;20050;-74
2022/01/18 02:12:37;;;;;;;31.88;4.90;;;7.00;99.90;;;;;;5098361;28;20046;-74
2022/01/18 02:15:15;;;;;;;33.75;4.88;;;7.00;99.90;;;;;;5097772;27;20042;-74
2022/01/18 02:23:19;;;;;;;23.17;4.50;;;7.00;99.90;;;;;;5118157;27;20047;-74
2022/01/18 02:25:45;;;;;;;29.52;4.53;;;7.00;99.90;;;;;;5118319;27;20050;-74
2022/01/18 02:28:11;;;;;;;35.55;5.28;;;7.00;99.90;;;;;;5114021;28;20039;-74
2022/01/18 02:30:37;;;;;;;26.85;4.45;;;6.90;99.90;;;;;;5098633;28;20043;-74
2022/01/18 02:33:03;;;;;;;27.88;4.30;;;6.90;99.90;;;;;;5094711;27;20050;-74
2022/01/18 02:35:38;;;;;;;29.40;4.65;;;6.90;99.90;;;;;;5118902;27;20050;-74
2022/01/18 02:38:04;;;;;;;28.30;4.90;;;7.00;99.90;;;;;;5118381;27;20051;-74
2022/01/18 02:40:31;;;;;;;23.13;4.25;;;7.00;99.90;;;;;;5118602;27;20067;-74
2022/01/18 02:43:46;;;;;;;28.67;4.07;;;7.00;99.90;;;;;;5116987;27;20039;-74
2022/01/18 02:45:48;;;;;;;24.30;4.07;;;6.90;99.90;;;;;;5118588;27;20126;-74
2022/01/18 02:48:14;;;;;;;27.80;3.88;;;6.90;99.90;;;;;;5100010;27;20122;-75
2022/01/18 02:50:40;;;;;;;26.33;4.93;;;6.90;99.90;;;;;;5101646;27;20031;-74
2022/01/18 02:53:06;;;;;;;33.90;4.75;;;6.90;99.90;;;;;;5116989;27;20044;-74
2022/01/18 02:55:31;;;;;;;28.67;4.00;;;6.90;99.90;;;;;;5101666;27;20046;-74
2022/01/18 02:58:03;;;;;;;23.67;3.95;;;6.80;99.90;;;;;;5119716;27;20487;-75
2022/01/18 03:00:45;;;;;;;30.65;4.60;;;6.80;99.90;;;;;;5136064;27;20039;-74
2022/01/18 03:03:13;;;;;;;25.60;3.72;;;6.80;99.90;;;;;;5124523;27;20510;-74
2022/01/18 03:05:44;;;;;;;26.88;4.45;;;6.90;99.90;;;;;;5118350;27;20087;-74
2022/01/18 03:08:12;;;;;;;18.58;3.05;;;6.80;99.90;;;;;;5089580;28;20038;-74
2022/01/18 03:10:38;;;;;;;18.27;3.95;;;6.80;99.90;;;;;;5097839;28;20036;-74
2022/01/18 03:13:05;;;;;;;21.48;3.33;;;6.80;99.90;;;;;;5088966;27;20112;-74
2022/01/18 03:15:32;;;;;;;27.73;3.95;;;6.80;99.90;;;;;;5101204;27;20043;-74
2022/01/18 03:17:57;;;;;;;24.73;3.50;;;6.80;99.90;;;;;;5116476;27;20110;-74
2022/01/18 03:20:24;;;;;;;26.85;3.60;;;6.80;99.90;;;;;;5118105;27;20534;-74
2022/01/18 03:22:50;;;;;;;23.10;3.78;;;6.80;99.90;;;;;;5116401;27;20118;-74
2022/01/18 03:28:06;;;;;;;24.70;3.75;;;6.80;99.90;;;;;;5107718;27;20398;-75
2022/01/18 03:30:34;;;;;;;19.33;3.20;;;6.80;99.90;;;;;;5100021;27;20120;-74
2022/01/18 03:33:00;;;;;;;24.73;3.10;;;6.90;99.90;;;;;;5116687;27;20043;-75
2022/01/18 03:35:25;;;;;;;21.40;3.00;;;6.90;99.90;;;;;;5090235;27;20035;-74
2022/01/18 03:37:51;;;;;;;26.42;3.33;;;6.90;99.90;;;;;;5109565;27;20043;-75
2022/01/18 03:40:17;;;;;;;17.05;2.78;;;6.90;99.90;;;;;;5096589;27;20047;-74
2022/01/18 03:42:45;;;;;;;23.27;4.07;;;6.80;99.90;;;;;;5120806;27;20062;-75
2022/01/18 03:45:15;;;;;;;17.88;2.50;;;6.90;99.90;;;;;;5116035;27;20093;-74
2022/01/18 03:47:41;;;;;;;15.90;2.88;;;6.90;99.90;;;;;;5097421;27;20039;-74
2022/01/18 03:50:08;;;;;;;15.45;3.05;;;6.90;99.90;;;;;;5099829;27;20039;-75
2022/01/18 03:52:34;;;;;;;18.85;2.95;;;6.80;99.90;;;;;;5116015;27;20061;-74
2022/01/18 03:55:00;;;;;;;13.98;2.97;;;6.80;99.90;;;;;;5117321;27;20043;-74
2022/01/18 03:57:25;;;;;;;19.42;3.70;;;6.90;99.90;;;;;;5115410;27;20035;-74
2022/01/18 03:59:51;;;;;;;22.25;3.97;;;6.80;99.90;;;;;;5111894;27;20035;-74
2022/01/18 04:02:17;;;;;;;20.27;3.50;;;6.80;99.90;;;;;;5101862;27;20027;-74
2022/01/18 04:04:43;;;;;;;20.90;3.88;;;6.80;99.90;;;;;;5118463;27;20118;-74
2022/01/18 04:07:09;;;;;;;25.25;4.30;;;6.80;99.90;;;;;;5117016;27;20049;-74
2022/01/18 04:09:35;;;;;;;22.23;3.92;;;6.80;99.90;;;;;;5116403;27;20032;-74
2022/01/18 04:12:01;;;;;;;21.88;3.65;;;6.80;99.90;;;;;;5115489;27;20039;-74
2022/01/18 04:14:26;;;;;;;21.77;4.25;;;6.80;99.90;;;;;;5098428;27;20035;-74
2022/01/18 04:27:50;;;;;;;16.02;3.38;;;6.70;99.90;;;;;;5106463;27;20050;-74
2022/01/18 04:30:15;;;;;;;17.55;2.65;;;6.80;99.90;;;;;;5103178;27;20159;-74
2022/01/18 04:32:41;;;;;;;16.83;3.58;;;6.70;99.90;;;;;;5115553;27;20114;-74
2022/01/18 04:35:07;;;;;;;15.75;2.38;;;6.70;99.90;;;;;;5122407;27;20066;-74
2022/01/18 04:37:32;;;;;;;10.75;2.17;;;6.70;99.90;;;;;;5115780;27;20487;-74
2022/01/18 04:39:59;;;;;;;15.65;2.58;;;6.70;99.90;;;;;;5097285;27;20103;-74
2022/01/18 04:50:50;;;;;;;12.82;2.35;;;6.70;99.90;;;;;;5099617;27;20031;-74
2022/01/18 04:53:15;;;;;;;12.38;2.08;;;6.70;99.90;;;;;;5108670;27;20038;-74
2022/01/18 04:55:41;;;;;;;11.43;2.35;;;6.70;99.90;;;;;;5115455;27;20043;-74
2022/01/18 04:58:06;;;;;;;10.27;2.17;;;6.70;99.90;;;;;;5118295;27;20122;-74
2022/01/18 05:00:32;;;;;;;12.77;2.55;;;6.80;99.90;;;;;;5094215;28;20039;-74
2022/01/18 05:02:57;;;;;;;13.68;2.22;;;6.80;99.90;;;;;;5116397;27;20130;-74
2022/01/18 05:05:29;;;;;;;12.95;2.10;;;6.80;99.90;;;;;;5103325;27;20027;-74
2022/01/18 05:07:59;;;;;;;15.77;2.70;;;6.90;99.90;;;;;;5121445;27;20042;-74
2022/01/18 05:10:28;;;;;;;11.35;2.00;;;6.80;99.90;;;;;;5115502;27;20132;-74
2022/01/18 05:12:55;;;;;;;11.88;2.55;;;6.80;99.90;;;;;;5114906;27;20486;-74
2022/01/18 05:23:04;;;;;;;14.25;1.80;;;6.80;99.90;;;;;;5112834;27;20052;-75
2022/01/18 05:25:31;;;;;;;10.82;2.30;;;6.80;99.90;;;;;;5097419;28;20046;-74
2022/01/18 05:27:58;;;;;;;13.52;2.17;;;6.70;99.90;;;;;;5117761;27;20038;-75
2022/01/18 05:30:24;;;;;;;12.95;2.08;;;6.80;99.90;;;;;;5097930;27;20034;-75
2022/01/18 05:32:49;;;;;;;12.18;1.88;;;6.90;99.90;;;;;;5113813;27;20039;-74
2022/01/18 05:35:15;;;;;;;13.40;2.10;;;6.90;99.90;;;;;;5122535;27;20039;-74
2022/01/18 05:37:41;;;;;;;13.25;1.92;;;6.90;99.90;;;;;;5113183;28;20046;-74
2022/01/18 05:40:07;;;;;;;12.85;2.60;;;6.80;99.90;;;;;;5115519;28;20142;-74
2022/01/18 05:42:33;;;;;;;11.20;1.60;;;6.80;99.90;;;;;;5104321;28;20047;-74
2022/01/18 05:44:58;;;;;;;13.25;1.90;;;6.80;99.90;;;;;;5101824;28;20031;-74
2022/01/18 05:47:24;;;;;;;9.45;1.50;;;6.80;99.90;;;;;;5119381;28;20368;-74
2022/01/18 05:49:50;;;;;;;13.70;1.95;;;6.80;99.90;;;;;;5126706;28;20039;-74
2022/01/18 05:52:16;;;;;;;11.25;1.58;;;6.90;99.90;;;;;;5098739;28;20036;-74
2022/01/18 05:54:41;;;;;;;9.18;2.08;;;7.00;99.90;;;;;;5127681;28;20043;-74
2022/01/18 05:57:07;;;;;;;11.98;2.17;;;6.90;99.90;;;;;;5100027;28;20047;-74
2022/01/18 05:59:38;;;;;;;11.75;1.80;;;6.80;99.90;;;;;;5097444;28;20039;-74
2022/01/18 06:07:55;;;;;;;11.32;1.73;;;6.80;99.90;;;;;;5039151;28;20049;-74
2022/01/18 06:10:21;;;;;;;11.30;1.70;;;6.80;99.90;;;;;;5073669;28;20369;-74
2022/01/18 06:12:47;;;;;;;7.50;1.25;;;6.80;99.90;;;;;;5092660;28;20040;-74
2022/01/18 06:15:13;;;;;;;14.60;2.17;;;6.90;99.90;;;;;;5107000;28;20123;-74
2022/01/18 06:17:38;;;;;;;12.88;1.90;;;6.80;99.90;;;;;;5106053;28;20039;-74
2022/01/18 06:20:06;;;;;;;11.02;1.30;;;6.90;99.90;;;;;;5106718;28;20042;-74
2022/01/18 06:22:31;;;;;;;9.30;1.85;;;6.80;99.90;;;;;;5108367;28;20122;-74
2022/01/18 06:24:57;;;;;;;13.23;1.80;;;6.80;99.90;;;;;;5113966;28;20115;-74
2022/01/18 06:27:23;;;;;;;10.65;1.70;;;6.80;99.90;;;;;;5110960;28;20039;-75
2022/01/18 06:29:48;;;;;;;8.02;1.48;;;6.80;99.90;;;;;;5105914;28;20125;-74
2022/01/18 06:32:14;;;;;;;9.88;1.55;;;6.80;99.90;;;;;;5116051;28;20027;-74
2022/01/18 06:34:39;;;;;;;8.18;1.30;;;6.70;99.90;;;;;;5114266;28;20077;-74
2022/01/18 06:37:06;;;;;;;10.85;1.90;;;6.70;99.90;;;;;;5114064;28;20073;-74
2022/01/18 06:39:33;;;;;;;12.80;1.63;;;6.80;99.90;;;;;;5113845;28;20051;-74
2022/01/18 06:41:58;;;;;;;10.98;1.73;;;6.80;99.90;;;;;;5115553;27;20047;-74
2022/01/18 06:44:25;;;;;;;13.52;1.98;;;6.70;99.90;;;;;;5113541;27;20513;-74
2022/01/18 06:46:52;;;;;;;12.50;2.10;;;6.60;99.90;;;;;;5101092;27;20535;-74
2022/01/18 06:49:17;;;;;;;11.95;2.00;;;6.60;99.90;;;;;;5129901;27;20039;-74
2022/01/18 06:51:43;;;;;;;10.10;1.77;;;6.60;99.90;;;;;;5101110;27;20502;-74
2022/01/18 06:54:14;;;;;;;10.35;2.33;;;6.60;99.90;;;;;;5128813;27;20130;-74
2022/01/18 06:56:43;;;;;;;10.43;1.70;;;6.70;99.90;;;;;;5100403;27;20042;-74
2022/01/18 06:59:09;;;;;;;7.38;1.40;;;6.60;99.90;;;;;;5116515;27;20088;-74
2022/01/18 07:01:35;;;;;;;10.48;2.08;;;6.60;99.90;;;;;;5100920;27;20071;-74
2022/01/18 07:04:00;;;;;;;9.82;1.52;;;6.60;99.90;;;;;;5103618;27;20047;-74
2022/01/18 07:06:26;;;;;;;13.25;2.08;;;6.60;99.90;;;;;;5098666;27;20038;-74
2022/01/18 07:08:52;;;;;;;9.90;1.50;;;6.60;99.90;;;;;;5100372;27;20039;-74
2022/01/18 07:11:19;;;;;;;8.43;1.60;;;6.50;99.90;;;;;;5108253;27;20045;-75
2022/01/18 07:13:44;;;;;;;8.88;1.48;;;6.50;99.90;;;;;;5103429;27;20407;-74
2022/01/18 07:16:10;;;;;;;10.52;1.85;;;6.60;99.90;;;;;;5100305;27;20042;-74
2022/01/18 07:18:35;;;;;;;8.50;1.42;;;6.60;99.90;;;;;;5097683;27;20110;-74
2022/01/18 07:21:01;;;;;;;7.45;1.50;;;6.60;99.90;;;;;;5124104;27;20035;-74
2022/01/18 07:23:27;;;;;;;7.45;2.22;;;6.50;99.90;;;;;;5104480;27;20074;-74
2022/01/18 07:25:53;;;;;;;6.97;1.30;;;6.60;99.90;;;;;;5097756;27;20516;-74
2022/01/18 07:28:19;;;;;;;8.82;1.52;;;6.60;99.90;;;;;;5102933;27;20031;-74
2022/01/18 07:30:45;;;;;;;11.80;2.08;;;6.70;99.90;;;;;;5109670;27;20031;-74
2022/01/18 07:33:13;;;;;;;12.68;2.28;;;6.60;99.90;;;;;;5109132;27;20039;-74
2022/01/18 07:35:40;;;;;;;9.07;1.50;;;6.60;99.90;;;;;;5106386;27;20042;-74
2022/01/18 07:38:12;;;;;;;10.30;1.90;;;6.60;99.90;;;;;;5114900;27;20534;-75
2022/01/18 07:40:38;;;;;;;6.70;1.60;;;6.60;99.90;;;;;;5119357;27;20419;-74
2022/01/18 07:43:05;;;;;;;10.25;2.30;;;6.60;99.90;;;;;;5114810;27;20297;-75
2022/01/18 07:45:31;;;;;;;9.48;1.88;;;6.70;99.90;;;;;;5124472;27;20038;-74
2022/01/18 07:47:57;;;;;;;13.15;2.00;;;6.70;99.90;;;;;;5099783;27;20084;-74
2022/01/18 07:50:24;;;;;;;12.68;2.08;;;6.70;99.90;;;;;;5097561;27;20042;-74
2022/01/18 07:52:50;;;;;;;12.82;2.10;;;6.70;99.90;;;;;;5099530;27;20047;-74
2022/01/18 07:55:16;;;;;;;9.20;1.92;;;6.80;99.90;;;;;;5098290;27;20410;-74
2022/01/18 07:57:43;;;;;;;11.02;2.13;;;6.90;99.90;;;;;;5117007;27;20046;-74
2022/01/18 08:00:14;;;;;;;12.32;2.17;;;6.90;99.90;;;;;;5111718;27;20031;-75
2022/01/18 08:02:40;;;;;;;12.63;2.28;;;6.90;99.90;;;;;;5099178;27;20483;-74
2022/01/18 08:05:08;;;;;;;10.60;2.45;;;6.90;99.90;;;;;;5097570;27;20031;-75
2022/01/18 08:07:34;;;;;;;12.02;2.72;;;6.90;99.90;;;;;;5115755;27;20043;-74
2022/01/18 08:10:00;;;;;;;14.27;3.03;;;6.80;99.90;;;;;;5114288;27;20501;-75
2022/01/18 08:12:26;;;;;;;9.68;2.15;;;6.80;99.90;;;;;;5098952;27;20043;-74
2022/01/18 08:14:54;;;;;;;10.38;2.47;;;6.80;99.90;;;;;;5098346;27;20109;-74
2022/01/18 08:17:22;;;;;;;9.35;2.70;;;6.80;99.90;;;;;;5097935;27;20039;-74
2022/01/18 08:19:48;;;;;;;9.38;2.55;;;6.80;99.90;;;;;;5097448;27;20499;-74
2022/01/18 08:22:14;;;;;;;14.98;2.80;;;6.80;99.90;;;;;;5115122;27;20122;-74
2022/01/18 08:24:40;;;;;;;8.73;2.42;;;6.90;99.90;;;;;;5113459;27;20095;-74
2022/01/18 08:27:07;;;;;;;11.98;2.78;;;6.90;99.90;;;;;;5097165;27;20039;-74
2022/01/18 08:29:34;;;;;;;11.43;3.08;;;6.90;99.90;;;;;;5114548;27;20046;-74
2022/01/18 08:31:59;;;;;;;9.48;2.53;;;6.90;99.90;;;;;;5082549;27;20036;-74
2022/01/18 08:34:25;;;;;;;14.50;2.90;;;6.90;99.90;;;;;;5115612;27;20425;-74
2022/01/18 08:36:51;;;;;;;11.82;2.58;;;7.10;99.90;;;;;;5114881;27;20122;-74
2022/01/18 08:39:17;;;;;;;10.85;2.58;;;7.10;99.90;;;;;;5098286;27;20059;-75
2022/01/18 08:41:42;;;;;;;11.38;2.55;;;7.20;99.90;;;;;;5115517;27;20047;-74
2022/01/18 08:44:08;;;;;;;9.18;2.50;;;7.20;99.90;;;;;;5114515;27;20498;-75
2022/01/18 08:46:34;;;;;;;11.98;2.42;;;7.20;99.90;;;;;;5098372;27;20138;-74
2022/01/18 08:49:00;;;;;;;11.55;2.63;;;7.40;99.90;;;;;;5113710;27;20031;-74
2022/01/18 08:51:27;;;;;;;12.68;2.80;;;7.30;99.90;;;;;;5120989;27;20452;-74
2022/01/18 08:53:52;;;;;;;12.35;2.70;;;7.30;99.90;;;;;;5100325;27;20058;-74
2022/01/18 08:56:20;;;;;;;15.35;3.10;;;7.10;99.90;;;;;;5098362;27;20035;-74
2022/01/18 08:58:46;;;;;;;11.55;2.78;;;7.30;99.90;;;;;;5114135;27;20039;-74
2022/01/18 09:01:12;;;;;;;9.63;3.05;;;7.20;99.90;;;;;;5115685;27;20073;-75
2022/01/18 09:03:38;;;;;;;13.77;3.08;;;7.30;99.90;;;;;;5100653;27;20039;-74
2022/01/18 09:06:06;;;;;;;14.43;3.30;;;7.30;99.90;;;;;;5111169;27;20027;-74
2022/01/18 09:08:33;;;;;;;10.57;2.30;;;7.20;99.90;;;;;;5112034;27;20110;-74
2022/01/18 09:10:59;;;;;;;13.40;2.75;;;7.30;99.90;;;;;;5097820;27;20035;-74
2022/01/18 09:13:24;;;;;;;7.45;2.47;;;7.20;99.90;;;;;;5114739;27;20499;-73
2022/01/18 09:15:51;;;;;;;9.43;2.70;;;7.20;99.90;;;;;;5098295;27;20163;-74
2022/01/18 09:18:17;;;;;;;11.77;2.70;;;7.10;99.90;;;;;;5097902;27;20481;-73
2022/01/18 09:20:43;;;;;;;12.77;2.78;;;7.10;99.90;;;;;;5116491;27;20059;-73
2022/01/18 09:23:10;;;;;;;9.23;2.40;;;7.00;99.90;;;;;;5132024;27;20554;-74
2022/01/18 09:25:36;;;;;;;12.32;2.95;;;7.00;99.90;;;;;;5114976;27;20031;-73
2022/01/18 09:28:02;;;;;;;10.45;2.90;;;7.20;99.90;;;;;;5114703;27;20169;-73
2022/01/18 09:30:29;;;;;;;14.48;2.95;;;7.20;99.90;;;;;;5132274;27;20495;-73
2022/01/18 09:32:58;;;;;;;9.57;2.47;;;7.00;99.90;;;;;;5113577;27;20050;-73
2022/01/18 09:35:25;;;;;;;8.70;2.20;;;7.00;99.90;;;;;;5114599;27;20053;-73
2022/01/18 09:37:50;;;;;;;9.30;2.03;;;7.00;99.90;;;;;;5114786;28;20093;-73
2022/01/18 09:40:19;;;;;;;13.55;2.78;;;7.20;99.90;;;;;;5114363;28;20491;-74
2022/01/18 09:42:53;;;;;;;10.75;1.90;;;7.10;99.90;;;;;;5114487;28;20070;-74
2022/01/18 09:45:20;;;;;;;10.85;2.00;;;7.10;99.90;;;;;;5114548;28;20050;-73
2022/01/18 09:47:48;;;;;;;9.10;2.15;;;7.10;99.90;;;;;;5097383;28;20035;-73
2022/01/18 09:50:21;;;;;;;14.05;2.50;;;7.10;99.90;;;;;;5113616;28;20173;-73
2022/01/18 09:52:52;;;;;;;11.93;2.30;;;7.10;99.90;;;;;;5112242;28;20039;-73
2022/01/18 09:55:18;;;;;;;13.45;2.58;;;7.30;99.90;;;;;;5132010;28;20064;-73
2022/01/18 09:57:43;;;;;;;10.48;2.50;;;7.50;99.90;;;;;;5131700;28;20189;-74
2022/01/18 10:00:10;;;;;;;10.57;3.10;;;7.60;99.90;;;;;;5114554;28;20125;-73
2022/01/18 10:02:35;;;;;;;15.27;2.80;;;7.40;99.90;;;;;;5131703;28;20075;-73
2022/01/18 10:05:26;;;;;;;16.55;3.08;;;7.30;99.90;;;;;;5122927;28;20070;-74
2022/01/18 10:08:08;;;;;;;12.77;3.20;;;7.30;99.90;;;;;;5097215;28;20070;-74
2022/01/18 10:10:48;;;;;;;17.70;3.17;;;7.30;99.90;;;;;;5097303;28;20045;-74
2022/01/18 10:13:34;;;;;;;12.23;2.47;;;7.40;99.90;;;;;;5097172;28;20110;-74
2022/01/18 10:16:10;;;;;;;12.82;2.75;;;7.50;99.90;;;;;;5114218;28;20046;-74
2022/01/18 10:18:37;;;;;;;11.65;2.75;;;7.70;99.90;;;;;;5099747;27;20047;-74
2022/01/18 10:21:06;;;;;;;14.55;3.58;;;7.60;99.90;;;;;;5105612;27;20447;-74
2022/01/18 10:23:32;;;;;;;10.85;3.33;;;7.40;99.90;;;;;;5135129;27;20139;-74
2022/01/18 10:26:15;;;;;;;14.38;3.78;;;7.50;99.90;;;;;;5118470;27;20035;-74
2022/01/18 10:28:41;;;;;;;14.45;3.30;;;7.60;99.90;;;;;;5117911;27;20040;-74
2022/01/18 10:31:26;;;;;;;12.18;2.72;;;7.70;99.90;;;;;;5135088;27;20042;-74
2022/01/18 10:34:12;;;;;;;8.27;3.00;;;7.60;99.90;;;;;;5118271;27;20035;-74
2022/01/18 10:36:52;;;;;;;15.02;2.90;;;7.80;99.90;;;;;;5107429;27;20035;-74
2022/01/18 10:39:30;;;;;;;8.88;2.45;;;7.80;99.90;;;;;;5116016;27;20059;-73
2022/01/18 10:41:56;;;;;;;10.23;3.10;;;7.80;99.90;;;;;;5101036;27;20459;-69
2022/01/18 10:44:23;;;;;;;10.35;2.92;;;7.80;99.90;;;;;;5100099;27;20055;-74
2022/01/18 10:46:53;;;;;;;10.10;2.97;;;7.90;99.90;;;;;;5098796;27;20036;-73
2022/01/18 10:49:47;;;;;;;9.13;1.92;;;8.00;99.90;;;;;;5114599;27;20035;-73
2022/01/18 10:52:26;;;;;;;9.95;2.15;;;8.00;99.90;;;;;;5117585;27;20073;-73
2022/01/18 10:54:54;;;;;;;16.50;3.15;;;8.10;99.90;;;;;;5116073;27;20111;-74
2022/01/18 10:57:29;;;;;;;13.70;2.83;;;8.10;99.90;;;;;;5117409;27;20042;-74
2022/01/18 11:00:03;;;;;;;10.40;2.85;;;8.20;99.90;;;;;;5121157;27;20043;-73
2022/01/18 11:02:36;;;;;;;13.40;3.45;;;8.10;99.90;;;;;;5101112;27;20433;-74
2022/01/18 11:05:13;;;;;;;13.50;4.05;;;8.20;99.90;;;;;;5117136;27;20106;-73
2022/01/18 11:07:39;;;;;;;12.32;2.70;;;8.20;99.90;;;;;;5100428;27;20425;-73
2022/01/18 11:10:07;;;;;;;11.02;3.50;;;8.10;99.90;;;;;;5099479;27;20035;-73
2022/01/18 11:12:53;;;;;;;12.20;3.25;;;8.20;99.90;;;;;;5119078;27;20118;-73
2022/01/18 11:15:21;;;;;;;10.18;3.05;;;8.10;99.90;;;;;;5107338;27;20070;-73
2022/01/18 11:17:57;;;;;;;12.48;3.90;;;8.20;99.90;;;;;;5098251;27;20035;-73
2022/01/18 11:20:23;;;;;;;11.32;2.92;;;8.00;99.90;;;;;;5100569;27;20092;-73
2022/01/18 11:22:50;;;;;;;15.00;3.55;;;8.10;99.90;;;;;;5099696;27;20503;-73
2022/01/18 11:25:17;;;;;;;12.07;2.90;;;8.10;99.90;;;;;;5116229;27;20463;-73
2022/01/18 11:27:47;;;;;;;11.45;3.00;;;8.20;99.90;;;;;;5117581;27;20035;-73
2022/01/18 11:30:14;;;;;;;10.98;2.72;;;8.10;99.90;;;;;;5116182;27;20031;-73
2022/01/18 11:32:39;;;;;;;12.43;3.30;;;8.00;99.90;;;;;;5116917;27;20049;-73
2022/01/18 11:35:12;;;;;;;12.77;3.25;;;8.00;99.90;;;;;;5098678;27;20035;-74
2022/01/18 11:38:16;;;;;;;14.88;3.40;;;8.00;99.90;;;;;;5114750;27;20429;-74
2022/01/18 11:40:44;;;;;;;12.68;2.70;;;8.10;99.90;;;;;;5098462;27;20055;-73
2022/01/18 11:43:10;;;;;;;11.43;2.38;;;8.10;99.90;;;;;;5120198;27;20043;-74
2022/01/18 11:45:40;;;;;;;11.23;2.30;;;8.20;99.90;;;;;;5115915;27;20037;-74
2022/01/18 11:48:05;;;;;;;14.18;2.95;;;8.20;99.90;;;;;;5104719;27;20421;-74
2022/01/18 11:50:37;;;;;;;13.60;3.50;;;8.00;99.90;;;;;;5114536;27;20035;-74
2022/01/18 11:53:22;;;;;;;13.87;3.17;;;8.10;99.90;;;;;;5111867;27;20446;-73
2022/01/18 11:55:47;;;;;;;13.98;3.22;;;8.10;99.90;;;;;;5114407;27;20349;-73
2022/01/18 11:58:13;;;;;;;12.82;2.90;;;8.10;99.90;;;;;;5098564;27;20039;-73
2022/01/18 12:01:00;;;;;;;13.82;3.05;;;8.10;99.90;;;;;;5096534;27;20049;-73
2022/01/18 12:03:32;;;;;;;14.10;3.13;;;8.00;99.90;;;;;;5084734;28;20442;-74
2022/01/18 12:06:00;;;;;;;10.05;2.63;;;7.80;99.90;;;;;;5095314;28;20031;-74
2022/01/18 12:08:31;;;;;;;13.77;3.60;;;7.90;99.90;;;;;;5106792;27;20391;-73
2022/01/18 12:10:57;;;;;;;12.82;2.95;;;7.90;99.90;;;;;;5089058;28;20035;-73
2022/01/18 12:13:26;;;;;;;11.43;2.78;;;7.80;99.90;;;;;;5099439;28;20459;-73
2022/01/18 12:15:56;;;;;;;12.45;3.25;;;7.90;99.90;;;;;;5080762;27;20034;-73
2022/01/18 12:18:27;;;;;;;15.80;2.70;;;7.80;99.90;;;;;;5099613;27;20038;-73
2022/01/18 12:20:56;;;;;;;14.90;3.43;;;7.80;99.90;;;;;;5083481;28;20043;-74
2022/01/18 12:23:32;;;;;;;12.32;2.90;;;7.80;99.90;;;;;;5078789;27;20043;-73
2022/01/18 12:34:33;;;;;;;11.55;2.95;;;7.90;99.90;;;;;;5115603;27;20050;-74
2022/01/18 12:37:08;;;;;;;9.23;2.30;;;8.10;99.90;;;;;;5098609;27;20035;-74
2022/01/18 12:39:55;;;;;;;9.77;1.88;;;8.10;99.90;;;;;;5101874;28;20172;-73
2022/01/18 12:45:06;;;;;;;13.00;2.80;;;7.90;99.90;;;;;;5114007;27;20048;-73
2022/01/18 12:47:36;;;;;;;10.27;2.05;;;8.00;99.90;;;;;;5096100;28;20116;-73
2022/01/18 12:50:05;;;;;;;12.77;2.20;;;7.80;99.90;;;;;;5111600;27;20047;-73
2022/01/18 12:52:58;;;;;;;13.80;2.58;;;7.80;99.90;;;;;;5098218;27;20073;-73
2022/01/18 12:55:41;;;;;;;10.55;2.70;;;7.80;99.90;;;;;;5102775;27;20471;-73
2022/01/18 12:58:18;;;;;;;10.68;2.20;;;7.70;99.90;;;;;;5121204;27;20078;-74
2022/01/18 13:00:46;;;;;;;11.68;2.50;;;7.70;99.90;;;;;;5097108;27;20039;-73
2022/01/18 13:03:29;;;;;;;8.65;2.92;;;7.60;99.90;;;;;;5099037;27;20146;-73
2022/01/18 13:06:00;;;;;;;8.90;3.30;;;7.50;99.90;;;;;;5097613;27;20059;-73
2022/01/18 13:08:39;;;;;;;15.23;2.70;;;7.40;99.90;;;;;;5115898;27;20130;-73
2022/01/18 13:11:04;;;;;;;10.65;2.78;;;7.50;99.90;;;;;;5113605;27;20027;-73
2022/01/18 13:13:33;;;;;;;13.43;3.38;;;7.60;99.90;;;;;;5099227;28;20494;-73
2022/01/18 13:24:46;;;;;;;12.07;3.42;;;7.60;99.90;;;;;;5113072;27;20043;-73
2022/01/18 13:27:26;;;;;;;12.10;3.50;;;7.40;99.90;;;;;;5115890;27;20047;-73
2022/01/18 13:29:54;;;;;;;15.25;3.80;;;7.50;99.90;;;;;;5097764;28;20039;-73
2022/01/18 13:32:26;;;;;;;10.88;3.58;;;7.40;99.90;;;;;;5113941;27;20039;-73
2022/01/18 13:34:55;;;;;;;12.32;3.45;;;7.60;99.90;;;;;;5097539;28;20043;-73
2022/01/18 13:37:26;;;;;;;9.82;2.85;;;7.70;99.90;;;;;;5096486;27;20608;-73
2022/01/18 13:39:54;;;;;;;11.23;3.47;;;7.80;99.90;;;;;;5098212;28;20434;-73
2022/01/18 13:42:30;;;;;;;11.60;3.85;;;7.90;99.90;;;;;;5098629;28;20422;-73
2022/01/18 13:45:12;;;;;;;13.77;4.20;;;7.90;99.90;;;;;;5100413;28;20050;-73
2022/01/18 13:47:47;;;;;;;20.48;4.78;;;7.70;99.90;;;;;;5113338;28;20039;-73
2022/01/18 13:50:32;;;;;;;15.23;4.35;;;7.50;99.90;;;;;;5114681;28;20051;-73
2022/01/18 13:53:02;;;;;;;17.23;4.80;;;7.50;99.90;;;;;;5100636;27;20087;-73
2022/01/18 13:55:29;;;;;;;13.85;4.28;;;7.70;99.90;;;;;;5115472;27;20039;-73
2022/01/18 13:57:59;;;;;;;14.63;3.75;;;7.60;99.90;;;;;;5100506;27;20050;-73
2022/01/18 14:00:26;;;;;;;14.00;4.10;;;7.60;99.90;;;;;;5101916;27;20035;-73
2022/01/18 14:02:53;;;;;;;11.93;3.80;;;7.70;99.90;;;;;;5098455;27;20035;-73
2022/01/18 14:05:21;;;;;;;14.13;4.05;;;7.80;99.90;;;;;;5114808;27;20114;-73
2022/01/18 14:07:47;;;;;;;13.70;3.80;;;7.80;99.90;;;;;;5116444;27;20039;-73
2022/01/18 14:10:13;;;;;;;11.73;4.28;;;7.80;99.90;;;;;;5088114;27;20063;-73
2022/01/18 14:12:39;;;;;;;13.32;3.88;;;7.80;99.90;;;;;;5097227;27;20073;-73
2022/01/18 14:15:05;;;;;;;15.57;4.28;;;7.80;99.90;;;;;;5114495;27;20047;-71
2022/01/18 14:17:31;;;;;;;16.48;5.00;;;7.70;99.90;;;;;;5092158;27;20047;-71
2022/01/18 14:20:13;;;;;;;18.02;5.25;;;7.70;99.90;;;;;;5110930;27;20039;-73
2022/01/18 14:22:39;;;;;;;13.43;4.05;;;7.50;99.90;;;;;;5108735;27;20072;-73
2022/01/18 14:25:07;;;;;;;15.32;4.70;;;7.50;99.90;;;;;;5090366;27;20096;-73
2022/01/18 14:27:40;;;;;;;13.35;4.07;;;7.60;99.90;;;;;;5085172;28;20092;-74
2022/01/18 14:30:07;;;;;;;9.57;3.92;;;7.70;99.90;;;;;;5089347;28;20032;-74
2022/01/18 14:32:41;;;;;;;15.73;4.22;;;7.60;99.90;;;;;;5104310;28;20395;-74